createdAt,value
2024-03-16T00:00:09.189Z,13.07
2024-03-16T00:02:37.354Z,13.30
2024-03-16T00:05:05.762Z,9.10
2024-03-16T00:07:33.935Z,16.90
2024-03-16T00:10:02.217Z,13.87
2024-03-16T00:12:30.816Z,16.13
2024-03-16T00:14:58.962Z,14.53
2024-03-16T00:17:27.318Z,11.43
2024-03-16T00:19:56.387Z,14.10
2024-03-16T00:22:24.558Z,13.13
2024-03-16T00:24:52.755Z,13.97
2024-03-16T00:27:20.880Z,15.00
2024-03-16T00:29:49.004Z,8.97
2024-03-16T00:32:17.527Z,12.30
2024-03-16T00:34:45.886Z,15.00
2024-03-16T00:37:14.377Z,11.00
2024-03-16T00:39:42.583Z,10.73
2024-03-16T00:42:11.251Z,13.77
2024-03-16T00:44:39.426Z,11.97
2024-03-16T00:47:07.675Z,14.70
2024-03-16T00:49:36.077Z,14.43
2024-03-16T00:52:04.283Z,12.60
2024-03-16T00:54:32.773Z,21.30
2024-03-16T00:57:01.001Z,15.50
2024-03-16T00:59:30.071Z,22.73
2024-03-16T01:01:58.645Z,17.07
2024-03-16T01:04:26.897Z,15.87
2024-03-16T01:06:55.119Z,19.70
2024-03-16T01:09:23.486Z,20.63
2024-03-16T01:11:51.661Z,21.93
2024-03-16T01:14:20.040Z,22.60
2024-03-16T01:16:48.224Z,18.67
2024-03-16T01:19:16.553Z,20.10
2024-03-16T01:21:44.816Z,21.57
2024-03-16T01:24:13.063Z,22.63
2024-03-16T01:26:41.200Z,19.13
2024-03-16T01:29:16.978Z,19.27
2024-03-16T01:31:45.333Z,22.80
2024-03-16T01:34:13.480Z,23.13
2024-03-16T01:36:41.636Z,18.90
2024-03-16T01:39:13.316Z,17.97
2024-03-16T01:41:41.582Z,23.57
2024-03-16T01:44:11.898Z,20.50
2024-03-16T01:46:40.715Z,21.17
2024-03-16T01:49:10.023Z,19.90
2024-03-16T01:51:38.537Z,20.17
2024-03-16T01:54:06.877Z,21.57
2024-03-16T01:56:35.276Z,23.87
2024-03-16T01:59:03.595Z,17.23
2024-03-16T02:01:32.396Z,15.90
2024-03-16T02:04:00.830Z,15.40
2024-03-16T02:06:30.829Z,12.47
2024-03-16T02:09:01.418Z,17.70
2024-03-16T02:11:29.748Z,11.90
2024-03-16T02:13:57.917Z,10.90
2024-03-16T02:16:25.053Z,14.53
2024-03-16T02:18:53.329Z,9.13
2024-03-16T02:21:21.478Z,14.13
2024-03-16T02:23:49.711Z,7.33
2024-03-16T02:26:18.122Z,9.67
2024-03-16T02:28:46.297Z,8.90
2024-03-16T02:31:15.157Z,10.07
2024-03-16T02:33:43.395Z,15.63
2024-03-16T02:36:11.762Z,9.10
2024-03-16T02:38:41.575Z,14.70
2024-03-16T02:41:09.773Z,10.43
2024-03-16T02:43:37.940Z,16.53
2024-03-16T02:46:06.646Z,12.00
2024-03-16T02:48:34.933Z,9.07
2024-03-16T02:51:03.096Z,13.53
2024-03-16T02:53:31.235Z,14.80
2024-03-16T02:56:00.454Z,13.77
2024-03-16T02:58:28.640Z,12.40
2024-03-16T03:00:56.911Z,13.53
2024-03-16T03:03:25.753Z,12.60
2024-03-16T03:05:54.271Z,9.40
2024-03-16T03:08:22.440Z,17.70
2024-03-16T03:10:50.641Z,9.60
2024-03-16T03:13:18.845Z,12.10
2024-03-16T03:15:50.693Z,11.60
2024-03-16T03:18:18.942Z,9.47
2024-03-16T03:20:47.282Z,6.43
2024-03-16T03:23:15.422Z,9.30
2024-03-16T03:25:43.590Z,10.93
2024-03-16T03:28:11.849Z,12.97
2024-03-16T03:30:40.054Z,6.53
2024-03-16T03:33:08.270Z,8.27
2024-03-16T03:35:36.521Z,12.10
2024-03-16T03:38:04.751Z,10.17
2024-03-16T03:40:32.882Z,8.87
2024-03-16T03:43:01.842Z,7.50
2024-03-16T03:45:39.271Z,12.63
2024-03-16T03:48:26.551Z,7.53
2024-03-16T03:50:54.993Z,7.50
2024-03-16T03:53:23.160Z,14.57
2024-03-16T03:55:51.321Z,9.50
2024-03-16T03:58:19.477Z,7.33
2024-03-16T04:00:47.741Z,10.27
2024-03-16T04:03:16.020Z,14.73
2024-03-16T04:05:44.359Z,11.10
2024-03-16T04:08:12.562Z,12.60
2024-03-16T04:10:40.710Z,7.27
2024-03-16T04:13:09.086Z,7.77
2024-03-16T04:15:38.464Z,8.73
2024-03-16T04:18:06.787Z,8.37
2024-03-16T04:20:34.944Z,10.73
2024-03-16T04:23:03.189Z,7.77
2024-03-16T04:25:31.343Z,9.47
2024-03-16T04:27:59.784Z,12.30
2024-03-16T04:30:28.038Z,10.70
2024-03-16T04:32:56.355Z,11.83
2024-03-16T04:35:24.562Z,9.07
2024-03-16T04:37:53.752Z,13.47
2024-03-16T04:40:22.006Z,14.60
2024-03-16T04:42:50.206Z,11.83
2024-03-16T04:45:18.656Z,11.87
2024-03-16T04:47:46.856Z,10.83
2024-03-16T04:50:16.508Z,9.33
2024-03-16T04:52:44.833Z,9.07
2024-03-16T04:55:13.226Z,8.30
2024-03-16T04:57:41.683Z,10.93
2024-03-16T05:00:13.100Z,10.53
2024-03-16T05:02:41.320Z,8.67
2024-03-16T05:05:09.849Z,4.03
2024-03-16T05:07:38.424Z,6.23
2024-03-16T05:10:06.963Z,6.77
2024-03-16T05:12:35.211Z,9.57
2024-03-16T05:15:03.467Z,2.73
2024-03-16T05:17:32.804Z,7.43
2024-03-16T05:20:01.130Z,6.17
2024-03-16T05:22:31.117Z,7.97
2024-03-16T05:24:59.355Z,6.37
2024-03-16T05:27:28.732Z,5.47
2024-03-16T05:29:57.233Z,6.33
2024-03-16T05:32:25.503Z,7.53
2024-03-16T05:34:53.850Z,5.67
2024-03-16T05:37:22.048Z,6.03
2024-03-16T05:39:50.490Z,7.03
2024-03-16T05:42:18.916Z,5.53
2024-03-16T05:44:47.020Z,9.13
2024-03-16T05:47:15.206Z,4.57
2024-03-16T05:49:43.400Z,9.00
2024-03-16T05:52:11.629Z,9.27
2024-03-16T05:54:39.959Z,9.53
2024-03-16T05:57:08.093Z,6.13
2024-03-16T05:59:36.238Z,10.57
2024-03-16T06:02:04.437Z,10.57
2024-03-16T06:04:32.659Z,6.17
2024-03-16T06:07:00.868Z,7.10
2024-03-16T06:09:29.049Z,7.93
2024-03-16T06:11:57.200Z,9.67
2024-03-16T06:14:25.406Z,9.23
2024-03-16T06:16:53.552Z,5.90
2024-03-16T06:19:22.035Z,4.97
2024-03-16T06:21:50.214Z,5.37
2024-03-16T06:24:18.396Z,2.13
2024-03-16T06:26:55.705Z,3.40
2024-03-16T06:29:27.230Z,3.60
2024-03-16T06:32:06.310Z,4.20
2024-03-16T06:34:34.733Z,3.10
2024-03-16T06:37:04.216Z,5.30
2024-03-16T06:39:32.566Z,2.67
2024-03-16T06:42:00.806Z,6.37
2024-03-16T06:44:29.015Z,3.80
2024-03-16T06:46:57.205Z,6.87
2024-03-16T06:49:25.673Z,6.30
2024-03-16T06:51:53.833Z,6.47
2024-03-16T06:54:22.076Z,4.90
2024-03-16T06:56:50.201Z,7.70
2024-03-16T06:59:18.336Z,4.40
2024-03-16T07:01:46.702Z,4.60
2024-03-16T07:04:16.914Z,6.20
2024-03-16T07:06:45.563Z,8.53
2024-03-16T07:09:14.669Z,8.60
2024-03-16T07:11:47.767Z,6.83
2024-03-16T07:14:17.012Z,6.87
2024-03-16T07:16:45.132Z,7.53
2024-03-16T07:19:12.379Z,6.23
2024-03-16T07:21:40.764Z,9.93
2024-03-16T07:24:11.056Z,10.73
2024-03-16T07:26:39.423Z,9.43
2024-03-16T07:29:07.692Z,7.13
2024-03-16T07:31:35.979Z,9.90
2024-03-16T07:34:04.875Z,5.87
2024-03-16T07:36:33.319Z,14.73
2024-03-16T07:39:01.598Z,8.37
2024-03-16T07:41:29.856Z,5.80
2024-03-16T07:43:58.013Z,6.47
2024-03-16T07:46:26.206Z,11.13
2024-03-16T07:48:54.435Z,9.03
2024-03-16T07:51:26.130Z,8.77
2024-03-16T07:53:54.399Z,7.07
2024-03-16T07:56:22.530Z,4.63
2024-03-16T07:58:51.024Z,8.13
2024-03-16T08:01:21.304Z,7.03
2024-03-16T08:03:50.075Z,8.80
2024-03-16T08:06:18.399Z,9.93
2024-03-16T08:08:46.729Z,5.90
2024-03-16T08:11:14.983Z,7.17
2024-03-16T08:13:43.161Z,12.03
2024-03-16T08:16:11.485Z,8.60
2024-03-16T08:18:40.014Z,6.77
2024-03-16T08:21:09.216Z,6.20
2024-03-16T08:23:37.448Z,4.47
2024-03-16T08:26:07.225Z,3.93
2024-03-16T08:28:35.577Z,8.00
2024-03-16T08:31:04.833Z,4.17
2024-03-16T08:33:33.642Z,5.27
2024-03-16T08:36:01.886Z,5.50
2024-03-16T08:38:31.748Z,6.27
2024-03-16T08:41:00.258Z,2.77
2024-03-16T08:45:56.998Z,5.17
2024-03-16T08:48:25.473Z,5.73
2024-03-16T08:50:53.722Z,5.50
2024-03-16T08:53:21.903Z,7.43
2024-03-16T08:55:50.063Z,8.67
2024-03-16T08:58:18.339Z,4.50
2024-03-16T09:00:47.369Z,3.87
2024-03-16T09:03:15.624Z,3.27
2024-03-16T09:05:43.765Z,5.07
2024-03-16T09:08:11.963Z,3.63
2024-03-16T09:10:40.105Z,3.57
2024-03-16T09:13:08.929Z,4.20
2024-03-16T09:15:37.154Z,2.10
2024-03-16T09:18:05.816Z,2.13
2024-03-16T09:20:34.986Z,3.77
2024-03-16T09:23:03.172Z,4.43
2024-03-16T09:25:31.634Z,2.93
2024-03-16T09:27:59.931Z,3.27
2024-03-16T09:30:28.394Z,4.50
2024-03-16T09:32:56.623Z,3.93
2024-03-16T09:35:24.806Z,5.77
2024-03-16T09:37:53.127Z,3.00
2024-03-16T09:40:21.371Z,4.10
